Simpson, KS

10:28 AM CDT on August 30, 2015 (GMT -0500)
1.5 miles East of Glasco | | Change Station
CLOSE
Current Station
Personal Weather Station
Location: Glasco, KS
Elevation: 1358 ft
Nearby Weather Stations

Elev 1358 ft 39.37 °N, 97.81 °W | Updated 5 seconds ago

Fog
Fog
63.7 °F
Feels Like 63.7 °F
N
0.0
Wind Variable Wind from SSW
Gusts 0.0 mph

Today
High -- | Low -- °F
--% Chance of Precip.
Yesterday
High -- | Low -- °F
Precip. -- in
6:58 AM 8:05 PM
Full, 99% visible
Pressure 30.08 in
Visibility 3.0 miles
Clouds Overcast 200 ft
Dew Point 64 °F
Humidity 99%
Rainfall 0.01 in
Snow Depth Not available.
UV 1.0 out of 12
Pollen 10.20 out of 12
Air Quality Not available.
Flu Activity Not available.
SPECI KCNK 301510Z AUTO 00000KT 3SM BR OVC002 17/17 A3008 RMK AO2 T01670167
Pressure 30.08 in
Visibility 3.0 miles
Clouds Overcast 200 ft
Dew Point 64 °F
Humidity 99%
Rainfall 0.01 in
Snow Depth Not available.
UV 1.0 out of 12
Pollen 10.20 out of 12
Air Quality Not available.
Flu Activity Not available.
SPECI KCNK 301510Z AUTO 00000KT 3SM BR OVC002 17/17 A3008 RMK AO2 T01670167

10-Day Weather Forecast

×

Almanac

Astronomy

Aug. 30, 2015 Rise Set
Actual Time
Civil Twilight
Nautical Twilight
Astronomical Twilight
Moon
Length of Visible Light
Length of Day
Tomorrow will be .
, % of the Moon is Illuminated

Today's Extremes

State Highs State Lows

Community

WunderPhotos

Upload Photos

1,850,995 photos uploaded!

WunderBlogs® & News

Nearby

Air Quality

  Air Quality AQ Index Pollutant
Not available.

Snow Depth

Station Depth Elevation

Earthquake Activity

City Distance Mag. Time & Date
Minimum magnitude displayed is 2.5.

Coastal Water Temperatures

Place Temperature

Stations

Nearby Weather Stations

Station Location Temp. Windchill Dew Point Humidity Wind Precip. Elev Updated Type